sensor_id;sensor_type;location;lat;lon;timestamp;noise_LAeq;noise_LA_min;noise_LA_max;noise_LA01;noise_LA95
78074;Laerm;67283;50.960;13.856;2023-04-29T00:01:24;37.28;35.77;39.54;;
78074;Laerm;67283;50.960;13.856;2023-04-29T00:03:52;37.28;35.48;38.68;;
78074;Laerm;67283;50.960;13.856;2023-04-29T00:06:20;52.78;35.85;71.39;;
78074;Laerm;67283;50.960;13.856;2023-04-29T00:08:50;37.35;35.48;38.94;;
78074;Laerm;67283;50.960;13.856;2023-04-29T00:11:19;39.83;35.58;72.01;;
78074;Laerm;67283;50.960;13.856;2023-04-29T00:13:47;37.42;35.69;51.95;;
78074;Laerm;67283;50.960;13.856;2023-04-29T00:16:15;37.42;35.69;51.95;;
78074;Laerm;67283;50.960;13.856;2023-04-29T00:18:43;37.42;35.69;51.95;;
78074;Laerm;67283;50.960;13.856;2023-04-29T00:21:11;37.41;35.41;55.71;;
78074;Laerm;67283;50.960;13.856;2023-04-29T00:23:39;37.36;34.72;39.87;;
78074;Laerm;67283;50.960;13.856;2023-04-29T00:26:10;38.14;35.72;44.69;;
78074;Laerm;67283;50.960;13.856;2023-04-29T00:28:38;55.36;36.03;71.98;;
78074;Laerm;67283;50.960;13.856;2023-04-29T00:31:06;37.76;35.99;48.22;;
78074;Laerm;67283;50.960;13.856;2023-04-29T00:33:34;37.49;35.46;42.43;;
78074;Laerm;67283;50.960;13.856;2023-04-29T00:36:04;37.84;35.78;50.05;;
78074;Laerm;67283;50.960;13.856;2023-04-29T00:38:33;51.53;35.87;68.66;;
78074;Laerm;67283;50.960;13.856;2023-04-29T00:41:01;37.46;35.83;39.06;;
78074;Laerm;67283;50.960;13.856;2023-04-29T00:43:32;38.21;36.04;54.93;;
78074;Laerm;67283;50.960;13.856;2023-04-29T00:46:00;37.52;35.94;40.11;;
78074;Laerm;67283;50.960;13.856;2023-04-29T00:48:28;37.52;35.94;40.11;;
78074;Laerm;67283;50.960;13.856;2023-04-29T00:50:57;37.50;35.78;38.97;;
78074;Laerm;67283;50.960;13.856;2023-04-29T00:53:25;37.43;35.88;39.15;;
78074;Laerm;67283;50.960;13.856;2023-04-29T00:55:53;37.39;35.82;39.10;;
78074;Laerm;67283;50.960;13.856;2023-04-29T00:58:22;37.39;35.80;38.81;;
78074;Laerm;67283;50.960;13.856;2023-04-29T01:00:59;37.37;35.68;38.97;;
78074;Laerm;67283;50.960;13.856;2023-04-29T01:03:28;53.28;35.66;71.63;;
78074;Laerm;67283;50.960;13.856;2023-04-29T01:05:59;37.36;35.70;39.55;;
78074;Laerm;67283;50.960;13.856;2023-04-29T01:08:36;37.28;35.50;39.04;;
78074;Laerm;67283;50.960;13.856;2023-04-29T01:11:07;37.31;35.79;38.79;;
78074;Laerm;67283;50.960;13.856;2023-04-29T01:13:36;37.36;35.85;38.84;;
78074;Laerm;67283;50.960;13.856;2023-04-29T01:16:16;37.39;35.78;38.78;;
78074;Laerm;67283;50.960;13.856;2023-04-29T01:18:49;38.88;35.81;51.22;;
78074;Laerm;67283;50.960;13.856;2023-04-29T01:21:20;52.78;35.97;72.17;;
78074;Laerm;67283;50.960;13.856;2023-04-29T01:23:51;37.45;35.79;38.92;;
78074;Laerm;67283;50.960;13.856;2023-04-29T01:26:20;37.46;35.62;39.05;;
78074;Laerm;67283;50.960;13.856;2023-04-29T01:28:49;37.54;35.78;38.93;;
78074;Laerm;67283;50.960;13.856;2023-04-29T01:31:23;37.53;35.82;39.16;;
78074;Laerm;67283;50.960;13.856;2023-04-29T01:33:54;39.09;35.73;50.38;;
78074;Laerm;67283;50.960;13.856;2023-04-29T01:36:26;38.63;36.35;47.99;;
78074;Laerm;67283;50.960;13.856;2023-04-29T01:39:06;51.08;36.38;69.79;;
78074;Laerm;67283;50.960;13.856;2023-04-29T01:41:39;41.02;36.75;53.87;;
78074;Laerm;67283;50.960;13.856;2023-04-29T01:44:11;41.07;37.60;59.66;;
78074;Laerm;67283;50.960;13.856;2023-04-29T01:46:41;40.85;37.43;54.95;;
78074;Laerm;67283;50.960;13.856;2023-04-29T01:49:10;40.85;37.43;54.95;;
78074;Laerm;67283;50.960;13.856;2023-04-29T01:51:39;53.11;37.43;75.23;;
78074;Laerm;67283;50.960;13.856;2023-04-29T01:54:10;39.34;36.56;48.47;;
78074;Laerm;67283;50.960;13.856;2023-04-29T01:56:38;39.88;36.72;50.70;;
78074;Laerm;67283;50.960;13.856;2023-04-29T01:59:06;53.67;37.65;72.84;;
78074;Laerm;67283;50.960;13.856;2023-04-29T02:01:35;42.71;38.23;61.48;;
78074;Laerm;67283;50.960;13.856;2023-04-29T02:04:03;44.14;38.87;59.54;;
78074;Laerm;67283;50.960;13.856;2023-04-29T02:06:31;46.77;40.33;60.31;;
78074;Laerm;67283;50.960;13.856;2023-04-29T02:08:59;49.60;44.24;61.34;;
78074;Laerm;67283;50.960;13.856;2023-04-29T02:11:30;51.60;46.26;62.64;;
78074;Laerm;67283;50.960;13.856;2023-04-29T02:13:59;64.59;46.55;82.55;;
78074;Laerm;67283;50.960;13.856;2023-04-29T02:16:27;51.66;46.49;66.33;;
78074;Laerm;67283;50.960;13.856;2023-04-29T02:18:55;52.19;47.67;65.59;;
78074;Laerm;67283;50.960;13.856;2023-04-29T02:21:23;53.21;47.95;65.84;;
78074;Laerm;67283;50.960;13.856;2023-04-29T02:23:51;57.83;51.12;69.28;;
78074;Laerm;67283;50.960;13.856;2023-04-29T02:26:19;55.23;50.77;68.43;;
78074;Laerm;67283;50.960;13.856;2023-04-29T02:28:50;53.03;47.82;64.86;;
78074;Laerm;67283;50.960;13.856;2023-04-29T02:31:20;58.06;48.62;83.70;;
78074;Laerm;67283;50.960;13.856;2023-04-29T02:33:48;60.38;44.38;77.72;;
78074;Laerm;67283;50.960;13.856;2023-04-29T02:36:16;54.96;42.41;74.60;;
78074;Laerm;67283;50.960;13.856;2023-04-29T02:38:45;53.17;40.53;70.13;;
78074;Laerm;67283;50.960;13.856;2023-04-29T02:41:15;48.32;41.21;61.09;;
78074;Laerm;67283;50.960;13.856;2023-04-29T02:43:43;57.64;41.82;74.66;;
78074;Laerm;67283;50.960;13.856;2023-04-29T02:46:15;57.95;38.41;76.14;;
78074;Laerm;67283;50.960;13.856;2023-04-29T02:48:43;57.03;37.17;76.80;;
78074;Laerm;67283;50.960;13.856;2023-04-29T02:51:12;55.46;37.32;70.67;;
78074;Laerm;67283;50.960;13.856;2023-04-29T02:53:40;56.88;37.65;72.40;;
78074;Laerm;67283;50.960;13.856;2023-04-29T02:56:08;54.51;38.59;70.33;;
78074;Laerm;67283;50.960;13.856;2023-04-29T02:58:36;57.03;41.95;73.78;;
78074;Laerm;67283;50.960;13.856;2023-04-29T03:01:06;55.52;40.10;71.74;;
78074;Laerm;67283;50.960;13.856;2023-04-29T03:03:36;58.72;39.26;74.33;;
78074;Laerm;67283;50.960;13.856;2023-04-29T03:06:04;57.90;39.85;74.12;;
78074;Laerm;67283;50.960;13.856;2023-04-29T03:08:33;59.51;42.21;73.57;;
78074;Laerm;67283;50.960;13.856;2023-04-29T03:11:01;58.00;42.52;72.62;;
78074;Laerm;67283;50.960;13.856;2023-04-29T03:13:29;58.01;42.04;70.94;;
78074;Laerm;67283;50.960;13.856;2023-04-29T03:15:57;57.26;41.34;71.59;;
78074;Laerm;67283;50.960;13.856;2023-04-29T03:18:25;57.51;40.42;72.94;;
78074;Laerm;67283;50.960;13.856;2023-04-29T03:20:56;54.74;41.66;69.93;;
78074;Laerm;67283;50.960;13.856;2023-04-29T03:23:24;55.05;41.52;72.30;;
78074;Laerm;67283;50.960;13.856;2023-04-29T03:25:52;47.47;39.63;58.88;;
78074;Laerm;67283;50.960;13.856;2023-04-29T03:28:20;47.89;40.28;60.06;;
78074;Laerm;67283;50.960;13.856;2023-04-29T03:30:49;47.89;40.28;60.06;;
78074;Laerm;67283;50.960;13.856;2023-04-29T03:33:17;52.54;39.94;73.33;;
78074;Laerm;67283;50.960;13.856;2023-04-29T03:35:45;52.54;39.94;73.33;;
78074;Laerm;67283;50.960;13.856;2023-04-29T03:38:15;48.00;38.75;59.65;;
78074;Laerm;67283;50.960;13.856;2023-04-29T03:40:43;57.40;39.60;72.83;;
78074;Laerm;67283;50.960;13.856;2023-04-29T03:43:12;56.51;38.92;71.33;;
78074;Laerm;67283;50.960;13.856;2023-04-29T03:45:40;57.85;39.91;71.99;;
78074;Laerm;67283;50.960;13.856;2023-04-29T03:48:08;53.73;39.84;68.86;;
78074;Laerm;67283;50.960;13.856;2023-04-29T03:50:36;53.73;39.84;68.86;;
78074;Laerm;67283;50.960;13.856;2023-04-29T03:53:04;46.34;38.93;56.80;;
78074;Laerm;67283;50.960;13.856;2023-04-29T03:55:35;56.86;39.02;74.96;;
78074;Laerm;67283;50.960;13.856;2023-04-29T03:58:03;45.89;37.98;56.17;;
78074;Laerm;67283;50.960;13.856;2023-04-29T04:00:31;44.94;38.33;56.34;;
78074;Laerm;67283;50.960;13.856;2023-04-29T04:02:59;45.39;38.34;61.29;;
78074;Laerm;67283;50.960;13.856;2023-04-29T04:05:28;54.22;38.81;70.51;;
78074;Laerm;67283;50.960;13.856;2023-04-29T04:07:56;45.55;38.55;56.91;;
78074;Laerm;67283;50.960;13.856;2023-04-29T04:10:24;57.36;38.40;72.84;;
78074;Laerm;67283;50.960;13.856;2023-04-29T04:12:55;59.21;38.66;72.52;;
78074;Laerm;67283;50.960;13.856;2023-04-29T04:15:23;57.46;38.36;71.54;;
78074;Laerm;67283;50.960;13.856;2023-04-29T04:17:51;53.10;38.44;71.49;;
78074;Laerm;67283;50.960;13.856;2023-04-29T04:20:19;56.10;38.10;74.59;;
78074;Laerm;67283;50.960;13.856;2023-04-29T04:22:47;46.60;38.68;65.89;;
78074;Laerm;67283;50.960;13.856;2023-04-29T04:25:15;54.85;38.00;72.81;;
78074;Laerm;67283;50.960;13.856;2023-04-29T04:27:43;62.21;38.07;78.03;;
78074;Laerm;67283;50.960;13.856;2023-04-29T04:30:14;54.50;38.34;67.53;;
78074;Laerm;67283;50.960;13.856;2023-04-29T04:32:42;53.48;37.95;72.00;;
78074;Laerm;67283;50.960;13.856;2023-04-29T04:35:10;54.04;37.65;71.33;;
78074;Laerm;67283;50.960;13.856;2023-04-29T04:37:39;53.56;38.12;70.05;;
78074;Laerm;67283;50.960;13.856;2023-04-29T04:40:07;43.00;37.99;56.94;;
78074;Laerm;67283;50.960;13.856;2023-04-29T04:42:36;58.49;38.22;73.72;;
78074;Laerm;67283;50.960;13.856;2023-04-29T04:45:05;44.02;38.09;58.23;;
78074;Laerm;67283;50.960;13.856;2023-04-29T04:47:36;45.13;37.76;63.02;;
78074;Laerm;67283;50.960;13.856;2023-04-29T04:50:05;57.59;39.25;72.51;;
78074;Laerm;67283;50.960;13.856;2023-04-29T04:52:33;45.78;37.43;61.57;;
78074;Laerm;67283;50.960;13.856;2023-04-29T04:55:02;57.60;38.02;71.94;;
78074;Laerm;67283;50.960;13.856;2023-04-29T04:57:30;55.73;38.51;71.97;;
78074;Laerm;67283;50.960;13.856;2023-04-29T04:59:58;57.40;37.78;70.59;;
78074;Laerm;67283;50.960;13.856;2023-04-29T05:02:28;56.96;37.90;74.61;;
78074;Laerm;67283;50.960;13.856;2023-04-29T05:04:58;57.79;38.87;71.63;;
78074;Laerm;67283;50.960;13.856;2023-04-29T05:07:26;48.90;38.12;61.15;;
78074;Laerm;67283;50.960;13.856;2023-04-29T05:09:55;52.15;38.91;68.57;;
78074;Laerm;67283;50.960;13.856;2023-04-29T05:12:23;55.92;37.60;71.89;;
78074;Laerm;67283;50.960;13.856;2023-04-29T05:14:54;56.16;37.40;71.71;;
78074;Laerm;67283;50.960;13.856;2023-04-29T05:17:23;59.88;37.45;72.12;;
78074;Laerm;67283;50.960;13.856;2023-04-29T05:19:51;42.38;37.72;52.79;;
78074;Laerm;67283;50.960;13.856;2023-04-29T05:22:22;54.18;37.74;72.84;;
78074;Laerm;67283;50.960;13.856;2023-04-29T05:24:50;58.77;38.90;72.25;;
78074;Laerm;67283;50.960;13.856;2023-04-29T05:27:19;58.04;38.26;73.74;;
78074;Laerm;67283;50.960;13.856;2023-04-29T05:29:47;54.34;37.82;67.66;;
78074;Laerm;67283;50.960;13.856;2023-04-29T05:32:15;56.79;40.40;72.96;;
78074;Laerm;67283;50.960;13.856;2023-04-29T05:34:43;48.38;39.91;58.86;;
78074;Laerm;67283;50.960;13.856;2023-04-29T05:37:11;62.51;43.26;74.56;;
78074;Laerm;67283;50.960;13.856;2023-04-29T05:39:42;59.92;41.02;76.39;;
78074;Laerm;67283;50.960;13.856;2023-04-29T05:42:10;57.46;39.05;72.28;;
78074;Laerm;67283;50.960;13.856;2023-04-29T05:44:38;59.92;38.37;74.00;;
78074;Laerm;67283;50.960;13.856;2023-04-29T05:47:06;55.55;37.77;73.31;;
78074;Laerm;67283;50.960;13.856;2023-04-29T05:49:34;55.55;37.77;73.31;;
78074;Laerm;67283;50.960;13.856;2023-04-29T05:52:03;55.55;37.77;73.31;;
78074;Laerm;67283;50.960;13.856;2023-04-29T05:54:31;60.51;37.67;76.78;;
78074;Laerm;67283;50.960;13.856;2023-04-29T05:57:02;41.78;37.66;54.70;;
78074;Laerm;67283;50.960;13.856;2023-04-29T05:59:30;41.83;37.80;59.20;;
78074;Laerm;67283;50.960;13.856;2023-04-29T06:01:59;41.83;37.80;59.20;;
78074;Laerm;67283;50.960;13.856;2023-04-29T06:04:27;54.84;37.51;73.01;;
78074;Laerm;67283;50.960;13.856;2023-04-29T06:06:55;54.84;37.51;73.01;;
78074;Laerm;67283;50.960;13.856;2023-04-29T06:09:23;57.21;37.74;73.52;;
78074;Laerm;67283;50.960;13.856;2023-04-29T06:11:52;60.96;37.52;76.35;;
78074;Laerm;67283;50.960;13.856;2023-04-29T06:14:23;55.43;37.71;73.91;;
78074;Laerm;67283;50.960;13.856;2023-04-29T06:16:51;58.24;37.68;72.06;;
78074;Laerm;67283;50.960;13.856;2023-04-29T06:19:19;60.60;37.77;75.87;;
78074;Laerm;67283;50.960;13.856;2023-04-29T06:21:47;60.60;37.77;75.87;;
78074;Laerm;67283;50.960;13.856;2023-04-29T06:24:15;59.00;37.12;77.55;;
78074;Laerm;67283;50.960;13.856;2023-04-29T06:26:43;57.66;37.04;71.90;;
78074;Laerm;67283;50.960;13.856;2023-04-29T06:29:12;54.30;37.29;68.91;;
78074;Laerm;67283;50.960;13.856;2023-04-29T06:31:43;58.65;37.70;73.43;;
78074;Laerm;67283;50.960;13.856;2023-04-29T06:34:11;58.14;37.67;74.67;;
78074;Laerm;67283;50.960;13.856;2023-04-29T06:36:39;59.42;37.54;72.37;;
78074;Laerm;67283;50.960;13.856;2023-04-29T06:39:08;59.26;37.12;75.02;;
78074;Laerm;67283;50.960;13.856;2023-04-29T06:41:36;57.53;37.07;71.81;;
78074;Laerm;67283;50.960;13.856;2023-04-29T06:44:04;59.61;37.86;73.70;;
78074;Laerm;67283;50.960;13.856;2023-04-29T06:46:32;59.37;37.86;74.22;;
78074;Laerm;67283;50.960;13.856;2023-04-29T06:49:03;56.81;37.14;70.78;;
78074;Laerm;67283;50.960;13.856;2023-04-29T06:51:31;58.34;36.90;73.10;;
78074;Laerm;67283;50.960;13.856;2023-04-29T06:54:01;54.54;37.00;69.31;;
78074;Laerm;67283;50.960;13.856;2023-04-29T06:56:29;58.56;37.00;73.11;;
78074;Laerm;67283;50.960;13.856;2023-04-29T06:58:57;59.36;37.28;72.84;;
78074;Laerm;67283;50.960;13.856;2023-04-29T07:01:25;56.46;37.11;72.88;;
78074;Laerm;67283;50.960;13.856;2023-04-29T07:03:53;60.75;38.13;73.30;;
78074;Laerm;67283;50.960;13.856;2023-04-29T07:06:24;59.40;37.84;74.32;;
78074;Laerm;67283;50.960;13.856;2023-04-29T07:08:52;57.77;40.25;71.39;;
78074;Laerm;67283;50.960;13.856;2023-04-29T07:11:20;61.67;45.10;76.27;;
78074;Laerm;67283;50.960;13.856;2023-04-29T07:13:48;58.12;50.71;69.31;;
78074;Laerm;67283;50.960;13.856;2023-04-29T07:16:17;58.12;50.71;69.31;;
78074;Laerm;67283;50.960;13.856;2023-04-29T07:18:46;61.35;44.58;76.04;;
78074;Laerm;67283;50.960;13.856;2023-04-29T07:21:14;62.69;45.35;76.77;;
78074;Laerm;67283;50.960;13.856;2023-04-29T07:23:45;66.87;43.30;83.99;;
78074;Laerm;67283;50.960;13.856;2023-04-29T07:26:13;62.75;44.46;76.59;;
78074;Laerm;67283;50.960;13.856;2023-04-29T07:28:42;62.52;44.18;74.74;;
78074;Laerm;67283;50.960;13.856;2023-04-29T07:31:11;59.79;44.27;74.47;;
78074;Laerm;67283;50.960;13.856;2023-04-29T07:33:39;59.79;44.27;74.47;;
78074;Laerm;67283;50.960;13.856;2023-04-29T07:36:07;57.49;39.03;74.90;;
78074;Laerm;67283;50.960;13.856;2023-04-29T07:38:35;63.23;38.89;75.10;;
78074;Laerm;67283;50.960;13.856;2023-04-29T07:41:07;62.37;41.64;76.72;;
78074;Laerm;67283;50.960;13.856;2023-04-29T07:43:35;63.22;39.12;75.54;;
78074;Laerm;67283;50.960;13.856;2023-04-29T07:46:03;60.11;38.51;74.64;;
78074;Laerm;67283;50.960;13.856;2023-04-29T07:48:35;59.85;38.44;73.62;;
78074;Laerm;67283;50.960;13.856;2023-04-29T07:51:03;59.85;38.44;73.62;;
78074;Laerm;67283;50.960;13.856;2023-04-29T07:53:31;60.13;37.78;73.50;;
78074;Laerm;67283;50.960;13.856;2023-04-29T07:56:03;59.06;38.34;77.03;;
78074;Laerm;67283;50.960;13.856;2023-04-29T07:58:34;59.91;38.08;73.76;;
78074;Laerm;67283;50.960;13.856;2023-04-29T08:01:05;63.06;42.10;75.26;;
78074;Laerm;67283;50.960;13.856;2023-04-29T08:03:34;65.71;40.02;82.22;;
78074;Laerm;67283;50.960;13.856;2023-04-29T08:06:02;65.71;40.02;82.22;;
78074;Laerm;67283;50.960;13.856;2023-04-29T08:08:31;62.80;38.99;74.99;;
78074;Laerm;67283;50.960;13.856;2023-04-29T08:10:59;57.42;37.51;74.58;;
78074;Laerm;67283;50.960;13.856;2023-04-29T08:13:27;59.36;37.62;71.91;;
78074;Laerm;67283;50.960;13.856;2023-04-29T08:15:58;61.30;40.69;74.07;;
78074;Laerm;67283;50.960;13.856;2023-04-29T08:18:26;62.70;45.38;74.52;;
78074;Laerm;67283;50.960;13.856;2023-04-29T08:20:54;58.35;38.06;71.73;;
78074;Laerm;67283;50.960;13.856;2023-04-29T08:23:22;61.52;40.84;74.47;;
78074;Laerm;67283;50.960;13.856;2023-04-29T08:25:50;61.52;40.84;74.47;;
78074;Laerm;67283;50.960;13.856;2023-04-29T08:28:20;58.00;37.40;71.58;;
78074;Laerm;67283;50.960;13.856;2023-04-29T08:30:48;61.49;39.52;75.10;;
78074;Laerm;67283;50.960;13.856;2023-04-29T08:33:18;63.56;39.58;75.90;;
78074;Laerm;67283;50.960;13.856;2023-04-29T08:35:46;61.47;37.93;73.59;;
78074;Laerm;67283;50.960;13.856;2023-04-29T08:38:15;61.47;37.93;73.59;;
78074;Laerm;67283;50.960;13.856;2023-04-29T08:40:44;58.89;36.73;73.09;;
78074;Laerm;67283;50.960;13.856;2023-04-29T08:43:13;58.15;38.00;74.23;;
78074;Laerm;67283;50.960;13.856;2023-04-29T08:45:42;58.15;38.00;74.23;;
78074;Laerm;67283;50.960;13.856;2023-04-29T08:48:10;58.32;37.53;73.93;;
78074;Laerm;67283;50.960;13.856;2023-04-29T08:50:41;62.75;37.95;75.58;;
78074;Laerm;67283;50.960;13.856;2023-04-29T08:53:10;62.28;39.31;72.94;;
78074;Laerm;67283;50.960;13.856;2023-04-29T08:55:40;57.89;37.85;70.34;;
78074;Laerm;67283;50.960;13.856;2023-04-29T08:58:08;64.45;40.94;73.77;;
78074;Laerm;67283;50.960;13.856;2023-04-29T09:00:36;62.22;44.32;73.66;;
78074;Laerm;67283;50.960;13.856;2023-04-29T09:03:09;59.47;37.31;73.32;;
78074;Laerm;67283;50.960;13.856;2023-04-29T09:05:41;62.65;38.42;75.65;;
78074;Laerm;67283;50.960;13.856;2023-04-29T09:08:09;59.84;37.44;72.77;;
78074;Laerm;67283;50.960;13.856;2023-04-29T09:10:40;57.07;36.66;70.91;;
78074;Laerm;67283;50.960;13.856;2023-04-29T09:13:10;65.23;37.34;81.80;;
78074;Laerm;67283;50.960;13.856;2023-04-29T09:15:49;61.18;39.21;73.22;;
78074;Laerm;67283;50.960;13.856;2023-04-29T09:21:06;63.20;38.35;82.57;;
78074;Laerm;67283;50.960;13.856;2023-04-29T09:23:39;60.17;38.01;72.89;;
78074;Laerm;67283;50.960;13.856;2023-04-29T09:26:07;61.12;37.40;75.32;;
78074;Laerm;67283;50.960;13.856;2023-04-29T09:28:36;62.84;37.11;74.30;;
78074;Laerm;67283;50.960;13.856;2023-04-29T09:31:05;57.13;37.92;69.24;;
78074;Laerm;67283;50.960;13.856;2023-04-29T09:33:48;58.07;38.48;70.90;;
78074;Laerm;67283;50.960;13.856;2023-04-29T09:39:01;59.16;37.70;78.22;;
78074;Laerm;67283;50.960;13.856;2023-04-29T09:41:35;59.20;37.47;75.44;;
78074;Laerm;67283;50.960;13.856;2023-04-29T09:44:03;61.96;37.37;75.86;;
78074;Laerm;67283;50.960;13.856;2023-04-29T09:46:32;57.62;37.78;70.95;;
78074;Laerm;67283;50.960;13.856;2023-04-29T09:49:00;57.98;37.78;70.42;;
78074;Laerm;67283;50.960;13.856;2023-04-29T09:51:29;60.00;38.32;75.36;;
78074;Laerm;67283;50.960;13.856;2023-04-29T09:54:16;61.16;37.53;73.98;;
78074;Laerm;67283;50.960;13.856;2023-04-29T09:56:47;60.96;38.22;74.08;;
78074;Laerm;67283;50.960;13.856;2023-04-29T09:59:15;62.57;37.54;75.39;;
78074;Laerm;67283;50.960;13.856;2023-04-29T10:01:44;61.27;38.97;73.64;;
78074;Laerm;67283;50.960;13.856;2023-04-29T10:04:13;61.27;38.97;73.64;;
78074;Laerm;67283;50.960;13.856;2023-04-29T10:06:42;58.89;37.48;73.91;;
78074;Laerm;67283;50.960;13.856;2023-04-29T10:09:14;58.91;37.45;74.14;;
78074;Laerm;67283;50.960;13.856;2023-04-29T10:11:43;58.91;37.45;74.14;;
78074;Laerm;67283;50.960;13.856;2023-04-29T10:14:12;57.24;37.45;74.29;;
78074;Laerm;67283;50.960;13.856;2023-04-29T10:16:44;57.29;37.83;72.57;;
78074;Laerm;67283;50.960;13.856;2023-04-29T10:19:23;62.81;38.18;74.03;;
78074;Laerm;67283;50.960;13.856;2023-04-29T10:21:52;58.39;37.96;74.24;;
78074;Laerm;67283;50.960;13.856;2023-04-29T10:24:23;61.15;38.31;74.42;;
78074;Laerm;67283;50.960;13.856;2023-04-29T10:26:52;63.16;37.92;74.53;;
78074;Laerm;67283;50.960;13.856;2023-04-29T10:29:22;59.51;37.72;74.97;;
78074;Laerm;67283;50.960;13.856;2023-04-29T10:31:52;61.62;38.25;75.56;;
78074;Laerm;67283;50.960;13.856;2023-04-29T10:34:21;55.23;37.39;73.54;;
78074;Laerm;67283;50.960;13.856;2023-04-29T10:36:50;57.16;38.36;73.36;;
78074;Laerm;67283;50.960;13.856;2023-04-29T10:39:20;60.93;38.59;74.39;;
78074;Laerm;67283;50.960;13.856;2023-04-29T10:41:53;62.06;39.57;75.96;;
78074;Laerm;67283;50.960;13.856;2023-04-29T10:44:23;61.86;37.72;76.59;;
78074;Laerm;67283;50.960;13.856;2023-04-29T10:49:34;59.22;37.28;73.44;;
78074;Laerm;67283;50.960;13.856;2023-04-29T10:52:02;59.28;37.29;74.04;;
78074;Laerm;67283;50.960;13.856;2023-04-29T10:54:30;59.31;37.60;74.91;;
78074;Laerm;67283;50.960;13.856;2023-04-29T10:57:01;60.65;37.49;73.51;;
78074;Laerm;67283;50.960;13.856;2023-04-29T10:59:43;61.93;37.56;73.90;;
78074;Laerm;67283;50.960;13.856;2023-04-29T11:02:11;58.37;37.34;71.96;;
78074;Laerm;67283;50.960;13.856;2023-04-29T11:07:26;60.59;37.57;74.94;;
78074;Laerm;67283;50.960;13.856;2023-04-29T11:09:56;59.13;37.85;73.96;;
78074;Laerm;67283;50.960;13.856;2023-04-29T11:12:26;59.89;38.07;74.41;;
78074;Laerm;67283;50.960;13.856;2023-04-29T11:14:56;65.63;38.39;81.89;;
78074;Laerm;67283;50.960;13.856;2023-04-29T11:17:33;61.86;38.29;73.65;;
78074;Laerm;67283;50.960;13.856;2023-04-29T11:20:02;58.66;37.57;73.39;;
78074;Laerm;67283;50.960;13.856;2023-04-29T11:22:30;64.90;39.02;80.42;;
78074;Laerm;67283;50.960;13.856;2023-04-29T11:25:00;61.28;38.22;74.22;;
78074;Laerm;67283;50.960;13.856;2023-04-29T11:27:31;61.56;40.23;73.16;;
78074;Laerm;67283;50.960;13.856;2023-04-29T11:30:01;56.54;37.09;69.76;;
78074;Laerm;67283;50.960;13.856;2023-04-29T11:32:31;61.59;38.99;75.27;;
78074;Laerm;67283;50.960;13.856;2023-04-29T11:35:09;59.18;36.86;72.55;;
78074;Laerm;67283;50.960;13.856;2023-04-29T11:37:38;61.83;37.85;73.99;;
78074;Laerm;67283;50.960;13.856;2023-04-29T11:40:06;63.32;40.37;74.08;;
78074;Laerm;67283;50.960;13.856;2023-04-29T11:42:39;56.71;37.34;69.89;;
78074;Laerm;67283;50.960;13.856;2023-04-29T11:45:08;60.27;38.28;77.25;;
78074;Laerm;67283;50.960;13.856;2023-04-29T11:47:36;60.01;40.19;70.93;;
78074;Laerm;67283;50.960;13.856;2023-04-29T11:50:05;62.03;46.03;72.67;;
78074;Laerm;67283;50.960;13.856;2023-04-29T11:52:35;57.70;37.06;74.75;;
78074;Laerm;67283;50.960;13.856;2023-04-29T11:55:04;60.04;38.67;73.93;;
78074;Laerm;67283;50.960;13.856;2023-04-29T11:57:33;60.04;38.67;73.93;;
78074;Laerm;67283;50.960;13.856;2023-04-29T12:00:04;60.06;37.59;74.69;;
78074;Laerm;67283;50.960;13.856;2023-04-29T12:02:32;58.95;37.60;70.53;;
78074;Laerm;67283;50.960;13.856;2023-04-29T12:05:04;60.08;37.86;71.90;;
78074;Laerm;67283;50.960;13.856;2023-04-29T12:07:32;58.02;37.46;72.81;;
78074;Laerm;67283;50.960;13.856;2023-04-29T12:10:01;52.41;37.10;67.84;;
78074;Laerm;67283;50.960;13.856;2023-04-29T12:12:29;59.56;38.03;72.45;;
78074;Laerm;67283;50.960;13.856;2023-04-29T12:15:00;52.89;37.46;71.18;;
78074;Laerm;67283;50.960;13.856;2023-04-29T12:17:32;60.22;38.19;75.01;;
78074;Laerm;67283;50.960;13.856;2023-04-29T12:20:00;60.74;39.20;73.05;;
78074;Laerm;67283;50.960;13.856;2023-04-29T12:22:30;59.46;37.83;75.59;;
78074;Laerm;67283;50.960;13.856;2023-04-29T12:24:58;62.66;40.62;74.90;;
78074;Laerm;67283;50.960;13.856;2023-04-29T12:27:26;58.84;37.76;73.31;;
78074;Laerm;67283;50.960;13.856;2023-04-29T12:29:55;58.12;37.02;69.79;;
78074;Laerm;67283;50.960;13.856;2023-04-29T12:32:23;59.71;37.48;70.68;;
78074;Laerm;67283;50.960;13.856;2023-04-29T12:34:54;62.12;41.74;72.39;;
78074;Laerm;67283;50.960;13.856;2023-04-29T12:37:23;61.84;37.27;73.37;;
78074;Laerm;67283;50.960;13.856;2023-04-29T12:39:51;60.73;38.22;71.80;;
78074;Laerm;67283;50.960;13.856;2023-04-29T12:42:21;57.60;37.41;73.42;;
78074;Laerm;67283;50.960;13.856;2023-04-29T12:44:49;60.47;37.43;71.69;;
78074;Laerm;67283;50.960;13.856;2023-04-29T12:47:17;60.08;37.31;73.36;;
78074;Laerm;67283;50.960;13.856;2023-04-29T12:49:46;54.58;37.59;69.22;;
78074;Laerm;67283;50.960;13.856;2023-04-29T12:52:17;58.56;37.34;74.41;;
78074;Laerm;67283;50.960;13.856;2023-04-29T12:54:45;59.79;38.95;72.23;;
78074;Laerm;67283;50.960;13.856;2023-04-29T12:57:13;60.99;39.12;72.22;;
78074;Laerm;67283;50.960;13.856;2023-04-29T12:59:42;61.78;40.21;74.48;;
78074;Laerm;67283;50.960;13.856;2023-04-29T13:02:10;43.81;37.48;54.76;;
78074;Laerm;67283;50.960;13.856;2023-04-29T13:04:38;58.54;38.08;70.49;;
78074;Laerm;67283;50.960;13.856;2023-04-29T13:07:06;60.71;37.57;72.51;;
78074;Laerm;67283;50.960;13.856;2023-04-29T13:09:37;60.71;37.57;72.51;;
78074;Laerm;67283;50.960;13.856;2023-04-29T13:12:06;58.82;37.09;74.14;;
78074;Laerm;67283;50.960;13.856;2023-04-29T13:14:34;59.18;37.21;71.09;;
78074;Laerm;67283;50.960;13.856;2023-04-29T13:17:02;56.95;37.84;73.50;;
78074;Laerm;67283;50.960;13.856;2023-04-29T13:19:30;56.34;37.50;71.96;;
78074;Laerm;67283;50.960;13.856;2023-04-29T13:21:59;53.19;37.60;71.50;;
78074;Laerm;67283;50.960;13.856;2023-04-29T13:24:27;60.66;39.75;74.17;;
78074;Laerm;67283;50.960;13.856;2023-04-29T13:26:59;58.42;37.55;74.98;;
78074;Laerm;67283;50.960;13.856;2023-04-29T13:29:28;59.26;37.95;71.45;;
78074;Laerm;67283;50.960;13.856;2023-04-29T13:31:56;60.48;37.94;74.35;;
78074;Laerm;67283;50.960;13.856;2023-04-29T13:34:24;55.84;37.55;69.74;;
78074;Laerm;67283;50.960;13.856;2023-04-29T13:36:52;56.39;37.33;72.01;;
78074;Laerm;67283;50.960;13.856;2023-04-29T13:39:20;61.37;38.48;75.72;;
78074;Laerm;67283;50.960;13.856;2023-04-29T13:41:48;54.55;37.38;69.38;;
78074;Laerm;67283;50.960;13.856;2023-04-29T13:44:19;58.87;37.82;71.07;;
78074;Laerm;67283;50.960;13.856;2023-04-29T13:46:47;60.20;37.33;77.02;;
78074;Laerm;67283;50.960;13.856;2023-04-29T13:49:16;58.00;37.28;72.43;;
78074;Laerm;67283;50.960;13.856;2023-04-29T13:51:44;58.00;37.28;72.43;;
78074;Laerm;67283;50.960;13.856;2023-04-29T13:54:12;57.19;37.48;76.60;;